sensor_id;sensor_type;location;lat;lon;timestamp;pressure;altitude;pressure_sealevel;temperature;humidity
81608;BME280;71022;48.122;11.576;2023-09-19T00:00:47;95319.00;;;17.80;70.83
81608;BME280;71022;48.122;11.576;2023-09-19T00:03:15;95314.63;;;17.83;71.16
81608;BME280;71022;48.122;11.576;2023-09-19T00:05:43;95307.00;;;17.97;69.89
81608;BME280;71022;48.122;11.576;2023-09-19T00:08:11;95307.00;;;17.97;69.58
81608;BME280;71022;48.122;11.576;2023-09-19T00:10:41;95299.06;;;17.92;69.36
81608;BME280;71022;48.122;11.576;2023-09-19T00:13:09;95303.13;;;17.77;70.03
81608;BME280;71022;48.122;11.576;2023-09-19T00:15:44;95308.78;;;17.63;71.28
81608;BME280;71022;48.122;11.576;2023-09-19T00:18:20;95307.06;;;17.83;70.38
81608;BME280;71022;48.122;11.576;2023-09-19T00:20:49;95307.66;;;18.15;68.25
81608;BME280;71022;48.122;11.576;2023-09-19T00:23:19;95305.34;;;18.07;69.09
81608;BME280;71022;48.122;11.576;2023-09-19T00:25:48;95312.41;;;18.18;68.36
81608;BME280;71022;48.122;11.576;2023-09-19T00:28:15;95307.66;;;18.15;67.88
81608;BME280;71022;48.122;11.576;2023-09-19T00:30:43;95310.84;;;18.10;67.80
81608;BME280;71022;48.122;11.576;2023-09-19T00:33:11;95312.47;;;18.04;68.08
81608;BME280;71022;48.122;11.576;2023-09-19T00:35:53;95323.56;;;18.08;68.08
81608;BME280;71022;48.122;11.576;2023-09-19T00:38:22;95316.06;;;18.01;68.50
81608;BME280;71022;48.122;11.576;2023-09-19T00:40:51;95318.91;;;17.94;68.32
81608;BME280;71022;48.122;11.576;2023-09-19T00:43:20;95324.47;;;17.94;68.81
81608;BME280;71022;48.122;11.576;2023-09-19T00:45:50;95321.38;;;17.82;69.20
81608;BME280;71022;48.122;11.576;2023-09-19T00:48:21;95318.22;;;17.80;70.72
81608;BME280;71022;48.122;11.576;2023-09-19T00:50:50;95330.84;;;17.91;69.37
81608;BME280;71022;48.122;11.576;2023-09-19T00:53:20;95326.50;;;17.87;69.71
81608;BME280;71022;48.122;11.576;2023-09-19T00:55:48;95326.78;;;18.03;70.01
81608;BME280;71022;48.122;11.576;2023-09-19T00:58:16;95330.59;;;18.27;68.07
81608;BME280;71022;48.122;11.576;2023-09-19T01:00:46;95329.06;;;18.18;68.21
81608;BME280;71022;48.122;11.576;2023-09-19T01:03:14;95340.13;;;18.22;69.02
81608;BME280;71022;48.122;11.576;2023-09-19T01:05:42;95335.34;;;18.26;68.65
81608;BME280;71022;48.122;11.576;2023-09-19T01:08:10;95336.13;;;18.30;68.13
81608;BME280;71022;48.122;11.576;2023-09-19T01:10:49;95347.59;;;18.36;68.00
81608;BME280;71022;48.122;11.576;2023-09-19T01:13:22;95348.63;;;18.56;67.83
81608;BME280;71022;48.122;11.576;2023-09-19T01:29:38;95364.09;;;18.05;69.60
81608;BME280;71022;48.122;11.576;2023-09-19T01:32:08;95365.63;;;18.13;69.05
81608;BME280;71022;48.122;11.576;2023-09-19T01:34:47;95360.78;;;18.24;68.88
81608;BME280;71022;48.122;11.576;2023-09-19T01:37:21;95371.91;;;18.24;68.94
81608;BME280;71022;48.122;11.576;2023-09-19T01:40:01;95371.09;;;18.28;68.86
81608;BME280;71022;48.122;11.576;2023-09-19T01:42:40;95378.63;;;18.31;68.94
81608;BME280;71022;48.122;11.576;2023-09-19T01:45:34;95374.13;;;18.51;67.80
81608;BME280;71022;48.122;11.576;2023-09-19T01:51:19;95387.03;;;18.16;68.40
81608;BME280;71022;48.122;11.576;2023-09-19T01:53:57;95384.44;;;17.88;69.38
81608;BME280;71022;48.122;11.576;2023-09-19T01:56:37;95388.50;;;17.77;69.97
81608;BME280;71022;48.122;11.576;2023-09-19T01:59:10;95392.84;;;17.74;70.61
81608;BME280;71022;48.122;11.576;2023-09-19T02:01:40;95379.34;;;17.76;70.20
81608;BME280;71022;48.122;11.576;2023-09-19T02:04:11;95382.59;;;17.64;70.80
81608;BME280;71022;48.122;11.576;2023-09-19T02:06:42;95385.72;;;17.69;70.49
81608;BME280;71022;48.122;11.576;2023-09-19T02:09:09;95388.94;;;17.68;70.28
81608;BME280;71022;48.122;11.576;2023-09-19T02:11:36;95386.53;;;17.70;70.18
81608;BME280;71022;48.122;11.576;2023-09-19T02:14:04;95387.28;;;17.74;70.45
81608;BME280;71022;48.122;11.576;2023-09-19T02:16:35;95380.88;;;17.84;70.08
81608;BME280;71022;48.122;11.576;2023-09-19T02:19:03;95380.81;;;17.98;69.31
81608;BME280;71022;48.122;11.576;2023-09-19T02:21:34;95384.44;;;17.92;69.59
81608;BME280;71022;48.122;11.576;2023-09-19T02:24:02;95380.88;;;17.91;69.19
81608;BME280;71022;48.122;11.576;2023-09-19T02:26:30;95381.25;;;17.86;69.45
81608;BME280;71022;48.122;11.576;2023-09-19T02:28:57;95382.06;;;17.90;68.92
81608;BME280;71022;48.122;11.576;2023-09-19T02:31:24;95383.31;;;17.79;69.38
81608;BME280;71022;48.122;11.576;2023-09-19T02:33:53;95386.47;;;17.81;69.12
81608;BME280;71022;48.122;11.576;2023-09-19T02:36:21;95381.41;;;17.61;69.73
81608;BME280;71022;48.122;11.576;2023-09-19T02:38:49;95386.16;;;17.61;69.90
81608;BME280;71022;48.122;11.576;2023-09-19T02:41:17;95390.16;;;17.53;70.51
81608;BME280;71022;48.122;11.576;2023-09-19T02:43:44;95388.19;;;17.50;70.58
81608;BME280;71022;48.122;11.576;2023-09-19T02:46:11;95394.50;;;17.54;70.38
81608;BME280;71022;48.122;11.576;2023-09-19T02:48:39;95383.38;;;17.54;70.75
81608;BME280;71022;48.122;11.576;2023-09-19T02:51:06;95385.78;;;17.59;70.02
81608;BME280;71022;48.122;11.576;2023-09-19T02:53:34;95390.53;;;17.62;69.93
81608;BME280;71022;48.122;11.576;2023-09-19T02:56:01;95393.75;;;17.46;70.62
81608;BME280;71022;48.122;11.576;2023-09-19T02:58:29;95391.41;;;17.31;71.01
81608;BME280;71022;48.122;11.576;2023-09-19T03:00:57;95399.72;;;17.38;70.83
81608;BME280;71022;48.122;11.576;2023-09-19T03:03:25;95398.09;;;17.58;70.00
81608;BME280;71022;48.122;11.576;2023-09-19T03:05:53;95391.78;;;17.40;70.45
81608;BME280;71022;48.122;11.576;2023-09-19T03:08:22;95395.28;;;17.51;69.83
81608;BME280;71022;48.122;11.576;2023-09-19T03:10:50;95389.38;;;17.56;69.77
81608;BME280;71022;48.122;11.576;2023-09-19T03:13:18;95396.09;;;17.58;69.62
81608;BME280;71022;48.122;11.576;2023-09-19T03:15:45;95386.16;;;17.54;69.82
81608;BME280;71022;48.122;11.576;2023-09-19T03:18:21;95391.75;;;17.47;70.30
81608;BME280;71022;48.122;11.576;2023-09-19T03:20:53;95393.75;;;17.50;70.43
81608;BME280;71022;48.122;11.576;2023-09-19T03:23:22;95395.22;;;17.79;69.49
81608;BME280;71022;48.122;11.576;2023-09-19T03:25:50;95392.38;;;17.86;69.28
81608;BME280;71022;48.122;11.576;2023-09-19T03:28:19;95398.25;;;18.02;68.36
81608;BME280;71022;48.122;11.576;2023-09-19T03:31:03;95398.97;;;18.13;67.71
81608;BME280;71022;48.122;11.576;2023-09-19T03:33:33;95395.72;;;18.25;67.04
81608;BME280;71022;48.122;11.576;2023-09-19T03:36:02;95390.88;;;18.37;65.96
81608;BME280;71022;48.122;11.576;2023-09-19T03:38:33;95398.47;;;18.33;66.42
81608;BME280;71022;48.122;11.576;2023-09-19T03:41:03;95401.19;;;18.40;66.01
81608;BME280;71022;48.122;11.576;2023-09-19T03:43:33;95393.97;;;18.49;65.36
81608;BME280;71022;48.122;11.576;2023-09-19T03:46:01;95400.34;;;18.50;65.40
81608;BME280;71022;48.122;11.576;2023-09-19T03:48:32;95402.22;;;18.63;64.59
81608;BME280;71022;48.122;11.576;2023-09-19T03:51:00;95399.53;;;18.53;64.94
81608;BME280;71022;48.122;11.576;2023-09-19T03:53:29;95407.09;;;18.49;64.43
81608;BME280;71022;48.122;11.576;2023-09-19T03:55:57;95404.25;;;18.56;64.69
81608;BME280;71022;48.122;11.576;2023-09-19T03:58:24;95401.81;;;18.65;63.77
81608;BME280;71022;48.122;11.576;2023-09-19T04:00:55;95405.75;;;18.67;64.63
81608;BME280;71022;48.122;11.576;2023-09-19T04:03:24;95399.34;;;18.74;64.25
81608;BME280;71022;48.122;11.576;2023-09-19T04:05:51;95405.03;;;18.60;64.34
81608;BME280;71022;48.122;11.576;2023-09-19T04:08:19;95408.28;;;18.48;64.71
81608;BME280;71022;48.122;11.576;2023-09-19T04:10:46;95410.66;;;18.46;65.32
81608;BME280;71022;48.122;11.576;2023-09-19T04:13:13;95410.66;;;18.49;64.64
81608;BME280;71022;48.122;11.576;2023-09-19T04:15:40;95413.06;;;18.44;64.03
81608;BME280;71022;48.122;11.576;2023-09-19T04:18:08;95411.47;;;18.50;64.62
81608;BME280;71022;48.122;11.576;2023-09-19T04:20:35;95421.84;;;18.39;64.73
81608;BME280;71022;48.122;11.576;2023-09-19T04:23:03;95414.56;;;18.00;65.51
81608;BME280;71022;48.122;11.576;2023-09-19T04:25:32;95423.72;;;17.90;65.84
81608;BME280;71022;48.122;11.576;2023-09-19T04:27:59;95432.50;;;17.85;66.19
81608;BME280;71022;48.122;11.576;2023-09-19T04:30:27;95423.81;;;17.76;66.53
81608;BME280;71022;48.122;11.576;2023-09-19T04:32:54;95431.31;;;17.79;66.54
81608;BME280;71022;48.122;11.576;2023-09-19T04:35:21;95439.31;;;17.59;67.21
81608;BME280;71022;48.122;11.576;2023-09-19T04:37:50;95440.56;;;17.55;67.63
81608;BME280;71022;48.122;11.576;2023-09-19T04:40:18;95445.31;;;17.54;67.90
81608;BME280;71022;48.122;11.576;2023-09-19T04:42:53;95442.13;;;17.56;67.13
81608;BME280;71022;48.122;11.576;2023-09-19T04:45:24;95441.72;;;17.57;66.94
81608;BME280;71022;48.122;11.576;2023-09-19T04:47:52;95446.09;;;17.62;67.25
81608;BME280;71022;48.122;11.576;2023-09-19T04:50:20;95448.47;;;17.60;67.20
81608;BME280;71022;48.122;11.576;2023-09-19T04:52:51;95451.66;;;17.62;66.78
81608;BME280;71022;48.122;11.576;2023-09-19T04:55:18;95455.97;;;17.70;66.43
81608;BME280;71022;48.122;11.576;2023-09-19T04:57:47;95456.38;;;17.51;66.93
81608;BME280;71022;48.122;11.576;2023-09-19T05:00:16;95464.34;;;17.49;67.32
81608;BME280;71022;48.122;11.576;2023-09-19T05:02:49;95467.50;;;17.51;67.55
81608;BME280;71022;48.122;11.576;2023-09-19T05:05:16;95467.50;;;17.51;67.21
81608;BME280;71022;48.122;11.576;2023-09-19T05:07:45;95470.69;;;17.53;67.01
81608;BME280;71022;48.122;11.576;2023-09-19T05:10:13;95469.91;;;17.38;66.73
81608;BME280;71022;48.122;11.576;2023-09-19T05:12:41;95477.84;;;17.40;67.75
81608;BME280;71022;48.122;11.576;2023-09-19T05:15:08;95477.81;;;17.68;66.55
81608;BME280;71022;48.122;11.576;2023-09-19T05:17:36;95485.69;;;17.80;65.82
81608;BME280;71022;48.122;11.576;2023-09-19T05:20:03;95488.88;;;17.75;65.69
81608;BME280;71022;48.122;11.576;2023-09-19T05:22:42;95488.13;;;17.64;65.74
81608;BME280;71022;48.122;11.576;2023-09-19T05:25:10;95492.47;;;17.51;66.84
81608;BME280;71022;48.122;11.576;2023-09-19T05:27:38;95497.69;;;17.35;67.01
81608;BME280;71022;48.122;11.576;2023-09-19T05:30:05;95492.91;;;17.46;67.02
81608;BME280;71022;48.122;11.576;2023-09-19T05:32:34;95502.03;;;17.36;67.05
81608;BME280;71022;48.122;11.576;2023-09-19T05:35:01;95504.81;;;17.36;67.11
81608;BME280;71022;48.122;11.576;2023-09-19T05:37:28;95504.00;;;17.53;67.05
81608;BME280;71022;48.122;11.576;2023-09-19T05:39:56;95513.50;;;17.73;66.47
81608;BME280;71022;48.122;11.576;2023-09-19T05:42:24;95513.06;;;17.78;66.18
81608;BME280;71022;48.122;11.576;2023-09-19T05:44:51;95513.88;;;17.82;66.31
81608;BME280;71022;48.122;11.576;2023-09-19T05:47:19;95511.09;;;17.75;65.94
81608;BME280;71022;48.122;11.576;2023-09-19T05:49:46;95519.44;;;17.75;66.48
81608;BME280;71022;48.122;11.576;2023-09-19T05:52:16;95517.47;;;17.72;66.55
81608;BME280;71022;48.122;11.576;2023-09-19T05:54:44;95518.25;;;17.69;66.27
81608;BME280;71022;48.122;11.576;2023-09-19T05:57:11;95519.06;;;17.69;66.53
81608;BME280;71022;48.122;11.576;2023-09-19T05:59:39;95523.00;;;17.72;66.56
81608;BME280;71022;48.122;11.576;2023-09-19T06:02:07;95527.75;;;17.75;65.68
81608;BME280;71022;48.122;11.576;2023-09-19T06:04:34;95530.94;;;17.77;65.96
81608;BME280;71022;48.122;11.576;2023-09-19T06:07:02;95524.59;;;17.77;66.37
81608;BME280;71022;48.122;11.576;2023-09-19T06:09:30;95525.81;;;17.65;66.83
81608;BME280;71022;48.122;11.576;2023-09-19T06:11:59;95535.34;;;17.71;65.94
81608;BME280;71022;48.122;11.576;2023-09-19T06:14:30;95523.06;;;17.44;67.16
81608;BME280;71022;48.122;11.576;2023-09-19T06:16:57;95537.31;;;17.71;66.19
81608;BME280;71022;48.122;11.576;2023-09-19T06:19:25;95536.84;;;17.93;66.74
81608;BME280;71022;48.122;11.576;2023-09-19T06:21:52;95532.47;;;17.92;65.00
81608;BME280;71022;48.122;11.576;2023-09-19T06:24:22;95540.41;;;17.97;65.24
81608;BME280;71022;48.122;11.576;2023-09-19T06:26:50;95542.78;;;17.95;65.69
81608;BME280;71022;48.122;11.576;2023-09-19T06:29:17;95540.41;;;18.01;65.53
81608;BME280;71022;48.122;11.576;2023-09-19T06:31:44;95542.34;;;18.07;65.21
81608;BME280;71022;48.122;11.576;2023-09-19T06:34:11;95540.34;;;18.18;65.45
81608;BME280;71022;48.122;11.576;2023-09-19T06:36:42;95545.94;;;18.04;65.28
81608;BME280;71022;48.122;11.576;2023-09-19T06:39:10;95538.81;;;18.03;65.58
81608;BME280;71022;48.122;11.576;2023-09-19T06:41:38;95547.53;;;17.98;65.46
81608;BME280;71022;48.122;11.576;2023-09-19T06:44:10;95555.44;;;18.10;65.78
81608;BME280;71022;48.122;11.576;2023-09-19T06:46:37;95549.91;;;18.03;65.26
81608;BME280;71022;48.122;11.576;2023-09-19T06:49:07;95550.72;;;18.00;65.17
81608;BME280;71022;48.122;11.576;2023-09-19T06:51:34;95549.91;;;18.03;66.03
81608;BME280;71022;48.122;11.576;2023-09-19T06:54:02;95561.31;;;18.30;64.64
81608;BME280;71022;48.122;11.576;2023-09-19T06:56:29;95569.66;;;18.34;64.54
81608;BME280;71022;48.122;11.576;2023-09-19T06:58:57;95575.97;;;18.38;65.49
81608;BME280;71022;48.122;11.576;2023-09-19T07:01:24;95565.13;;;18.68;64.67
81608;BME280;71022;48.122;11.576;2023-09-19T07:03:52;95567.75;;;18.96;62.61
81608;BME280;71022;48.122;11.576;2023-09-19T07:06:20;95570.59;;;19.41;61.16
81608;BME280;71022;48.122;11.576;2023-09-19T07:08:47;95561.91;;;19.31;61.84
81608;BME280;71022;48.122;11.576;2023-09-19T07:11:17;95569.28;;;19.01;63.56
81608;BME280;71022;48.122;11.576;2023-09-19T07:13:44;95576.09;;;18.93;63.16
81608;BME280;71022;48.122;11.576;2023-09-19T07:16:12;95578.56;;;18.84;62.89
81608;BME280;71022;48.122;11.576;2023-09-19T07:18:55;95576.50;;;18.91;63.70
81608;BME280;71022;48.122;11.576;2023-09-19T07:21:23;95578.94;;;18.82;63.23
81608;BME280;71022;48.122;11.576;2023-09-19T07:23:51;95591.66;;;18.87;63.57
81608;BME280;71022;48.122;11.576;2023-09-19T07:26:19;95582.91;;;18.85;63.32
81608;BME280;71022;48.122;11.576;2023-09-19T07:28:46;95587.63;;;18.91;63.70
81608;BME280;71022;48.122;11.576;2023-09-19T07:31:14;95586.75;;;19.08;63.35
81608;BME280;71022;48.122;11.576;2023-09-19T07:33:42;95587.25;;;19.48;62.47
81608;BME280;71022;48.122;11.576;2023-09-19T07:36:10;95584.47;;;19.92;60.67
81608;BME280;71022;48.122;11.576;2023-09-19T07:38:37;95588.41;;;20.32;59.78
81608;BME280;71022;48.122;11.576;2023-09-19T07:41:05;95583.88;;;20.08;59.12
81608;BME280;71022;48.122;11.576;2023-09-19T07:43:32;95576.38;;;20.01;60.18
81608;BME280;71022;48.122;11.576;2023-09-19T07:46:05;95584.53;;;20.56;58.11
81608;BME280;71022;48.122;11.576;2023-09-19T07:48:35;95580.94;;;20.56;58.69
81608;BME280;71022;48.122;11.576;2023-09-19T07:51:04;95582.44;;;20.64;58.67
81608;BME280;71022;48.122;11.576;2023-09-19T07:53:32;95586.94;;;20.54;58.46
81608;BME280;71022;48.122;11.576;2023-09-19T07:56:08;95588.81;;;20.91;57.43
81608;BME280;71022;48.122;11.576;2023-09-19T07:58:39;95585.94;;;20.98;57.20
81608;BME280;71022;48.122;11.576;2023-09-19T08:01:09;95588.38;;;20.66;58.23
81608;BME280;71022;48.122;11.576;2023-09-19T08:03:37;95592.19;;;20.79;57.52
81608;BME280;71022;48.122;11.576;2023-09-19T08:06:08;95595.06;;;21.02;56.89
81608;BME280;71022;48.122;11.576;2023-09-19T08:08:37;95587.38;;;21.36;56.24
81608;BME280;71022;48.122;11.576;2023-09-19T08:11:06;95592.72;;;20.97;57.22
81608;BME280;71022;48.122;11.576;2023-09-19T08:13:39;95598.22;;;21.04;57.65
81608;BME280;71022;48.122;11.576;2023-09-19T08:16:16;95601.38;;;21.60;55.33
81608;BME280;71022;48.122;11.576;2023-09-19T08:18:48;95596.53;;;22.10;53.71
81608;BME280;71022;48.122;11.576;2023-09-19T08:21:22;95598.00;;;22.57;52.81
81608;BME280;71022;48.122;11.576;2023-09-19T08:23:51;95601.22;;;22.56;52.27
81608;BME280;71022;48.122;11.576;2023-09-19T08:26:18;95590.31;;;21.99;54.08
81608;BME280;71022;48.122;11.576;2023-09-19T08:28:46;95597.66;;;21.43;55.15
81608;BME280;71022;48.122;11.576;2023-09-19T08:31:15;95599.53;;;21.26;55.11
81608;BME280;71022;48.122;11.576;2023-09-19T08:33:43;95596.38;;;21.47;54.56
81608;BME280;71022;48.122;11.576;2023-09-19T08:36:16;95598.38;;;21.97;52.93
81608;BME280;71022;48.122;11.576;2023-09-19T08:38:44;95599.00;;;22.47;51.72
81608;BME280;71022;48.122;11.576;2023-09-19T08:41:11;95605.03;;;22.85;50.85
81608;BME280;71022;48.122;11.576;2023-09-19T08:43:39;95597.88;;;22.65;51.18
81608;BME280;71022;48.122;11.576;2023-09-19T08:46:11;95589.59;;;22.57;51.03
81608;BME280;71022;48.122;11.576;2023-09-19T08:48:58;95596.97;;;22.28;51.24
81608;BME280;71022;48.122;11.576;2023-09-19T08:56:31;95599.22;;;23.12;48.77
81608;BME280;71022;48.122;11.576;2023-09-19T08:59:03;95599.22;;;23.12;49.31
81608;BME280;71022;48.122;11.576;2023-09-19T09:01:31;95598.78;;;23.65;48.24
81608;BME280;71022;48.122;11.576;2023-09-19T09:04:01;95601.19;;;23.31;47.79
81608;BME280;71022;48.122;11.576;2023-09-19T09:06:29;95608.59;;;22.46;50.55
81608;BME280;71022;48.122;11.576;2023-09-19T09:08:57;95599.84;;;22.25;50.51
81608;BME280;71022;48.122;11.576;2023-09-19T09:11:24;95610.63;;;21.80;52.34
81608;BME280;71022;48.122;11.576;2023-09-19T09:13:52;95603.56;;;21.22;53.99
81608;BME280;71022;48.122;11.576;2023-09-19T09:16:19;95615.56;;;20.92;55.42
81608;BME280;71022;48.122;11.576;2023-09-19T09:18:47;95616.78;;;20.61;56.20
81608;BME280;71022;48.122;11.576;2023-09-19T09:21:21;95612.88;;;20.55;55.64
81608;BME280;71022;48.122;11.576;2023-09-19T09:23:49;95623.81;;;20.38;55.42
81608;BME280;71022;48.122;11.576;2023-09-19T09:29:07;95617.03;;;20.70;53.83
81608;BME280;71022;48.122;11.576;2023-09-19T09:31:35;95612.44;;;21.67;52.51
81608;BME280;71022;48.122;11.576;2023-09-19T09:34:02;95609.09;;;22.22;49.63
81608;BME280;71022;48.122;11.576;2023-09-19T09:36:38;95611.34;;;22.89;47.92
81608;BME280;71022;48.122;11.576;2023-09-19T09:39:06;95608.25;;;23.39;47.63
81608;BME280;71022;48.122;11.576;2023-09-19T09:41:44;95610.00;;;23.65;46.00
81608;BME280;71022;48.122;11.576;2023-09-19T09:44:15;95611.44;;;23.74;45.26
81608;BME280;71022;48.122;11.576;2023-09-19T09:46:46;95606.31;;;24.01;46.18
81608;BME280;71022;48.122;11.576;2023-09-19T09:49:33;95605.00;;;24.21;44.76
81608;BME280;71022;48.122;11.576;2023-09-19T09:52:07;95611.47;;;24.02;44.89
81608;BME280;71022;48.122;11.576;2023-09-19T09:54:38;95611.78;;;23.92;45.80
81608;BME280;71022;48.122;11.576;2023-09-19T09:57:07;95602.19;;;23.57;43.81
81608;BME280;71022;48.122;11.576;2023-09-19T09:59:57;95615.44;;;23.40;44.52
81608;BME280;71022;48.122;11.576;2023-09-19T10:05:14;95612.38;;;23.99;44.90
81608;BME280;71022;48.122;11.576;2023-09-19T10:07:51;95615.97;;;24.16;45.25
81608;BME280;71022;48.122;11.576;2023-09-19T10:10:31;95616.31;;;24.18;44.63
81608;BME280;71022;48.122;11.576;2023-09-19T10:13:13;95615.44;;;23.73;44.58
81608;BME280;71022;48.122;11.576;2023-09-19T10:15:43;95611.69;;;23.27;46.43
81608;BME280;71022;48.122;11.576;2023-09-19T10:18:22;95616.50;;;22.91;47.56
81608;BME280;71022;48.122;11.576;2023-09-19T10:20:50;95621.25;;;22.54;48.68
81608;BME280;71022;48.122;11.576;2023-09-19T10:23:20;95620.41;;;22.57;46.58
81608;BME280;71022;48.122;11.576;2023-09-19T10:25:52;95625.31;;;22.30;48.40
81608;BME280;71022;48.122;11.576;2023-09-19T10:28:20;95624.50;;;22.10;48.48
81608;BME280;71022;48.122;11.576;2023-09-19T10:30:52;95609.31;;;21.88;51.02
81608;BME280;71022;48.122;11.576;2023-09-19T10:33:24;95607.50;;;22.01;49.67
81608;BME280;71022;48.122;11.576;2023-09-19T10:35:54;95615.69;;;21.65;50.78
81608;BME280;71022;48.122;11.576;2023-09-19T10:38:24;95619.69;;;21.64;50.57
81608;BME280;71022;48.122;11.576;2023-09-19T10:40:53;95618.63;;;21.78;49.69
81608;BME280;71022;48.122;11.576;2023-09-19T10:43:33;95624.88;;;21.89;49.38
81608;BME280;71022;48.122;11.576;2023-09-19T10:46:08;95634.22;;;22.02;49.86
81608;BME280;71022;48.122;11.576;2023-09-19T10:48:39;95626.22;;;22.04;49.91
81608;BME280;71022;48.122;11.576;2023-09-19T10:51:12;95617.97;;;22.17;50.13
81608;BME280;71022;48.122;11.576;2023-09-19T10:53:54;95620.72;;;22.20;49.83
81608;BME280;71022;48.122;11.576;2023-09-19T10:56:32;95623.06;;;21.75;48.99
81608;BME280;71022;48.122;11.576;2023-09-19T10:59:09;95623.50;;;21.74;50.76
81608;BME280;71022;48.122;11.576;2023-09-19T11:01:45;95621.72;;;21.60;50.92
81608;BME280;71022;48.122;11.576;2023-09-19T11:04:34;95617.16;;;21.46;51.86
81608;BME280;71022;48.122;11.576;2023-09-19T11:07:10;95628.59;;;21.56;52.54
81608;BME280;71022;48.122;11.576;2023-09-19T11:09:55;95633.06;;;21.26;52.15
81608;BME280;71022;48.122;11.576;2023-09-19T11:14:53;95623.38;;;20.74;53.13
81608;BME280;71022;48.122;11.576;2023-09-19T11:17:33;95628.31;;;20.63;53.48
81608;BME280;71022;48.122;11.576;2023-09-19T11:30:39;95621.34;;;21.08;51.27
81608;BME280;71022;48.122;11.576;2023-09-19T11:36:14;95614.13;;;21.37;48.26
81608;BME280;71022;48.122;11.576;2023-09-19T11:46:51;95618.28;;;21.52;46.26
81608;BME280;71022;48.122;11.576;2023-09-19T11:49:26;95613.34;;;21.60;46.87
81608;BME280;71022;48.122;11.576;2023-09-19T11:51:58;95601.38;;;21.60;46.15
81608;BME280;71022;48.122;11.576;2023-09-19T11:54:32;95614.81;;;21.68;45.86
81608;BME280;71022;48.122;11.576;2023-09-19T11:57:00;95611.34;;;21.61;45.04
81608;BME280;71022;48.122;11.576;2023-09-19T11:59:31;95611.66;;;21.66;44.75
81608;BME280;71022;48.122;11.576;2023-09-19T12:02:03;95605.75;;;21.84;45.07
81608;BME280;71022;48.122;11.576;2023-09-19T12:04:40;95611.00;;;22.05;45.49
81608;BME280;71022;48.122;11.576;2023-09-19T12:07:11;95609.00;;;22.25;45.28
81608;BME280;71022;48.122;11.576;2023-09-19T12:09:48;95604.53;;;22.51;44.04
81608;BME280;71022;48.122;11.576;2023-09-19T12:12:23;95610.34;;;22.80;44.77
81608;BME280;71022;48.122;11.576;2023-09-19T12:14:50;95597.97;;;22.97;44.35
81608;BME280;71022;48.122;11.576;2023-09-19T12:17:18;95608.22;;;23.03;43.64
81608;BME280;71022;48.122;11.576;2023-09-19T12:19:52;95604.69;;;23.19;43.70
81608;BME280;71022;48.122;11.576;2023-09-19T12:22:19;95606.03;;;22.95;43.82
81608;BME280;71022;48.122;11.576;2023-09-19T12:24:49;95603.59;;;22.77;43.51
81608;BME280;71022;48.122;11.576;2023-09-19T12:27:18;95605.75;;;22.89;43.57
81608;BME280;71022;48.122;11.576;2023-09-19T12:29:47;95600.38;;;22.79;44.66
81608;BME280;71022;48.122;11.576;2023-09-19T12:32:34;95600.59;;;22.68;44.55
81608;BME280;71022;48.122;11.576;2023-09-19T12:35:01;95604.06;;;22.76;44.50
81608;BME280;71022;48.122;11.576;2023-09-19T12:37:34;95599.88;;;22.84;43.42
81608;BME280;71022;48.122;11.576;2023-09-19T12:40:05;95598.06;;;22.93;43.63
81608;BME280;71022;48.122;11.576;2023-09-19T12:42:42;95603.22;;;22.95;43.28
81608;BME280;71022;48.122;11.576;2023-09-19T12:45:09;95597.19;;;22.96;43.73
81608;BME280;71022;48.122;11.576;2023-09-19T12:47:37;95601.41;;;23.04;43.71
81608;BME280;71022;48.122;11.576;2023-09-19T12:50:15;95597.91;;;23.00;42.94
81608;BME280;71022;48.122;11.576;2023-09-19T12:52:47;95589.88;;;23.02;42.60
81608;BME280;71022;48.122;11.576;2023-09-19T12:55:20;95589.53;;;22.81;43.74
81608;BME280;71022;48.122;11.576;2023-09-19T13:00:34;95588.31;;;22.82;44.46
81608;BME280;71022;48.122;11.576;2023-09-19T13:03:18;95581.47;;;22.83;43.87
81608;BME280;71022;48.122;11.576;2023-09-19T13:05:52;95583.47;;;23.02;45.09
81608;BME280;71022;48.122;11.576;2023-09-19T13:08:24;95590.34;;;23.33;43.37
81608;BME280;71022;48.122;11.576;2023-09-19T13:11:03;95588.72;;;23.52;43.55
81608;BME280;71022;48.122;11.576;2023-09-19T13:13:34;95578.81;;;23.63;43.62
81608;BME280;71022;48.122;11.576;2023-09-19T13:16:03;95581.25;;;23.78;43.63
81608;BME280;71022;48.122;11.576;2023-09-19T13:18:52;95580.19;;;23.72;43.41
81608;BME280;71022;48.122;11.576;2023-09-19T13:23:56;95581.78;;;23.40;43.80
81608;BME280;71022;48.122;11.576;2023-09-19T13:26:43;95573.50;;;23.33;45.20
81608;BME280;71022;48.122;11.576;2023-09-19T13:29:10;95568.84;;;23.10;46.06
81608;BME280;71022;48.122;11.576;2023-09-19T13:31:37;95559.81;;;23.03;45.74
81608;BME280;71022;48.122;11.576;2023-09-19T13:34:08;95562.41;;;22.78;46.74
81608;BME280;71022;48.122;11.576;2023-09-19T13:36:35;95565.72;;;22.73;47.11
81608;BME280;71022;48.122;11.576;2023-09-19T13:39:04;95564.19;;;22.48;47.97
81608;BME280;71022;48.122;11.576;2023-09-19T13:41:32;95561.22;;;22.55;47.28
81608;BME280;71022;48.122;11.576;2023-09-19T13:43:59;95560.59;;;22.68;47.39
81608;BME280;71022;48.122;11.576;2023-09-19T13:46:26;95558.53;;;22.72;47.95
81608;BME280;71022;48.122;11.576;2023-09-19T13:48:54;95558.22;;;22.86;47.29
81608;BME280;71022;48.122;11.576;2023-09-19T13:51:22;95562.88;;;22.92;46.01
81608;BME280;71022;48.122;11.576;2023-09-19T13:53:50;95556.84;;;23.10;44.53
81608;BME280;71022;48.122;11.576;2023-09-19T13:56:17;95548.78;;;23.12;42.34
81608;BME280;71022;48.122;11.576;2023-09-19T13:58:44;95559.13;;;23.15;43.80
81608;BME280;71022;48.122;11.576;2023-09-19T14:01:11;95562.13;;;23.08;41.50
81608;BME280;71022;48.122;11.576;2023-09-19T14:03:41;95554.00;;;22.94;41.99